createdAt,value
2019-01-11T00:00:17.068Z,98565.69
2019-01-11T00:02:48.875Z,98564.41
2019-01-11T00:05:20.382Z,98567.84
2019-01-11T00:07:52.192Z,98572.20
2019-01-11T00:10:23.748Z,98569.63
2019-01-11T00:12:55.460Z,98568.34
2019-01-11T00:15:26.995Z,98568.46
2019-01-11T00:17:58.920Z,98567.97
2019-01-11T00:20:31.007Z,98570.42
2019-01-11T00:23:02.552Z,98576.22
2019-01-11T00:25:34.452Z,98580.78
2019-01-11T00:28:06.101Z,98579.91
2019-01-11T00:30:37.847Z,98582.16
2019-01-11T00:33:09.454Z,98582.91
2019-01-11T00:35:41.138Z,98591.05
2019-01-11T00:38:12.880Z,98592.05
2019-01-11T00:40:44.704Z,98590.12
2019-01-11T00:43:16.541Z,98589.59
2019-01-11T00:45:48.120Z,98598.91
2019-01-11T00:48:20.103Z,98601.06
2019-01-11T00:50:51.968Z,98608.38
2019-01-11T00:53:24.260Z,98610.15
2019-01-11T00:55:56.159Z,98618.65
2019-01-11T00:58:28.896Z,98622.02
2019-01-11T01:01:01.019Z,98619.25
2019-01-11T01:03:33.102Z,98625.06
2019-01-11T01:06:05.489Z,98635.50
2019-01-11T01:08:37.554Z,98648.02
2019-01-11T01:11:09.441Z,98643.97
2019-01-11T01:13:44.580Z,98647.97
2019-01-11T01:16:17.054Z,98653.97
2019-01-11T01:18:48.760Z,98653.13
2019-01-11T01:21:20.389Z,98655.73
2019-01-11T01:23:52.129Z,98655.31
2019-01-11T01:26:24.071Z,98654.59
2019-01-11T01:28:55.917Z,98656.67
2019-01-11T01:31:27.742Z,98665.27
2019-01-11T01:33:59.494Z,98659.13
2019-01-11T01:36:31.197Z,98668.30
2019-01-11T01:39:03.215Z,98666.47
2019-01-11T01:41:34.783Z,98665.63
2019-01-11T01:44:06.833Z,98662.98
2019-01-11T01:46:38.909Z,98659.38
2019-01-11T01:49:10.342Z,98661.76
2019-01-11T01:51:44.067Z,98673.52
2019-01-11T01:54:15.774Z,98673.27
2019-01-11T01:56:47.436Z,98682.20
2019-01-11T01:59:19.018Z,98679.14
2019-01-11T02:01:50.529Z,98678.61
2019-01-11T02:04:22.016Z,98677.01
2019-01-11T02:06:53.561Z,98680.48
2019-01-11T02:09:26.224Z,98679.03
2019-01-11T02:11:57.889Z,98678.13
2019-01-11T02:14:29.693Z,98673.77
2019-01-11T02:17:01.550Z,98673.42
2019-01-11T02:19:33.373Z,98674.16
2019-01-11T02:22:05.004Z,98677.36
2019-01-11T02:24:36.505Z,98668.11
2019-01-11T02:27:08.174Z,98671.25
2019-01-11T02:29:39.707Z,98661.91
2019-01-11T02:32:11.291Z,98666.22
2019-01-11T02:34:42.938Z,98664.58
2019-01-11T02:37:14.695Z,98662.02
2019-01-11T02:39:46.414Z,98664.80
2019-01-11T02:42:18.075Z,98660.05
2019-01-11T02:44:49.715Z,98665.14
2019-01-11T02:47:21.335Z,98661.23
2019-01-11T02:49:52.780Z,98662.91
2019-01-11T02:52:24.585Z,98665.74
2019-01-11T02:54:56.046Z,98668.09
2019-01-11T02:57:27.703Z,98662.77
2019-01-11T02:59:59.387Z,98662.39
2019-01-11T03:02:31.378Z,98671.16
2019-01-11T03:05:02.960Z,98662.77
2019-01-11T03:07:34.648Z,98669.73
2019-01-11T03:10:07.681Z,98673.78
2019-01-11T03:12:39.087Z,98670.13
2019-01-11T03:15:10.981Z,98674.19
2019-01-11T03:17:42.725Z,98678.41
2019-01-11T03:20:16.117Z,98675.08
2019-01-11T03:22:47.832Z,98675.55
2019-01-11T03:25:19.426Z,98681.52
2019-01-11T03:27:51.101Z,98683.14
2019-01-11T03:30:23.608Z,98683.48
2019-01-11T03:32:56.014Z,98688.03
2019-01-11T03:35:27.945Z,98681.70
2019-01-11T03:37:59.613Z,98685.51
2019-01-11T03:40:32.328Z,98691.63
2019-01-11T03:43:04.118Z,98690.87
2019-01-11T03:45:36.166Z,98689.83
2019-01-11T03:48:08.043Z,98695.72
2019-01-11T03:50:39.639Z,98695.52
2019-01-11T03:53:11.480Z,98704.31
2019-01-11T03:55:43.161Z,98699.28
2019-01-11T03:58:14.724Z,98699.15
2019-01-11T04:00:47.368Z,98705.20
2019-01-11T04:03:19.203Z,98708.41
2019-01-11T04:05:51.009Z,98713.27
2019-01-11T04:08:22.693Z,98709.47
2019-01-11T04:10:54.425Z,98697.53
2019-01-11T04:13:30.498Z,98705.69
2019-01-11T04:15:59.793Z,98699.72
2019-01-11T04:18:36.024Z,98703.89
2019-01-11T04:21:07.999Z,98696.56
2019-01-11T04:23:39.697Z,98702.87
2019-01-11T04:26:11.449Z,98706.15
2019-01-11T04:28:43.129Z,98706.45
2019-01-11T04:31:14.757Z,98709.05
2019-01-11T04:33:46.447Z,98709.13
2019-01-11T04:36:18.469Z,98709.60
2019-01-11T04:38:50.015Z,98710.03
2019-01-11T04:41:21.636Z,98717.45
2019-01-11T04:43:53.354Z,98721.67
2019-01-11T04:46:25.021Z,98722.22
2019-01-11T04:48:56.761Z,98722.81
2019-01-11T04:51:28.633Z,98732.31
2019-01-11T04:54:00.316Z,98736.73
2019-01-11T04:56:32.210Z,98735.65
2019-01-11T04:59:04.101Z,98732.78
2019-01-11T05:01:35.840Z,98734.56
2019-01-11T05:04:07.929Z,98736.69
2019-01-11T05:06:39.758Z,98746.84
2019-01-11T05:09:11.363Z,98747.30
2019-01-11T05:11:43.175Z,98749.61
2019-01-11T05:14:14.932Z,98747.09
2019-01-11T05:16:46.482Z,98746.28
2019-01-11T05:19:18.223Z,98751.00
2019-01-11T05:21:50.084Z,98749.55
2019-01-11T05:24:21.715Z,98749.36
2019-01-11T05:26:53.824Z,98747.37
2019-01-11T05:29:25.268Z,98753.03
2019-01-11T05:31:56.821Z,98750.60
2019-01-11T05:34:28.549Z,98752.83
2019-01-11T05:37:00.740Z,98754.98
2019-01-11T05:39:32.512Z,98752.88
2019-01-11T05:42:04.616Z,98752.46
2019-01-11T05:44:36.469Z,98755.38
2019-01-11T05:47:08.479Z,98756.17
2019-01-11T05:49:40.759Z,98754.83
2019-01-11T05:52:12.800Z,98753.00
2019-01-11T05:54:45.037Z,98753.81
2019-01-11T05:57:16.871Z,98754.11
2019-01-11T05:59:48.703Z,98751.81
2019-01-11T06:02:20.255Z,98756.75
2019-01-11T06:04:59.903Z,98756.85
2019-01-11T06:07:42.728Z,98762.03
2019-01-11T06:10:16.850Z,98766.36
2019-01-11T06:12:48.655Z,98764.30
2019-01-11T06:15:20.395Z,98762.13
2019-01-11T06:17:52.054Z,98767.92
2019-01-11T06:20:30.051Z,98770.80
2019-01-11T06:22:57.334Z,98771.62
2019-01-11T06:25:34.626Z,98774.63
2019-01-11T06:28:18.531Z,98780.56
2019-01-11T06:30:50.221Z,98778.01
2019-01-11T06:33:22.071Z,98786.66
2019-01-11T06:35:54.136Z,98785.38
2019-01-11T06:38:25.769Z,98790.84
2019-01-11T06:40:57.493Z,98791.27
2019-01-11T06:43:29.473Z,98797.23
2019-01-11T06:46:01.233Z,98790.88
2019-01-11T06:48:42.325Z,98789.57
2019-01-11T06:51:14.293Z,98789.96
2019-01-11T06:53:46.358Z,98794.32
2019-01-11T06:56:18.049Z,98796.06
2019-01-11T06:58:50.029Z,98809.68
2019-01-11T07:01:22.133Z,98808.83
2019-01-11T07:03:54.331Z,98806.21
2019-01-11T07:06:26.074Z,98810.41
2019-01-11T07:08:57.814Z,98811.22
2019-01-11T07:11:29.433Z,98801.89
2019-01-11T07:14:01.080Z,98813.02
2019-01-11T07:16:33.925Z,98817.47
2019-01-11T07:19:06.147Z,98820.55
2019-01-11T07:21:38.075Z,98818.05
2019-01-11T07:24:09.723Z,98827.78
2019-01-11T07:26:41.296Z,98822.59
2019-01-11T07:29:13.065Z,98831.84
2019-01-11T07:31:47.716Z,98837.00
2019-01-11T07:34:19.792Z,98835.27
2019-01-11T07:36:54.632Z,98833.98
2019-01-11T07:39:30.647Z,98845.89
2019-01-11T07:42:02.730Z,98841.58
2019-01-11T07:44:34.405Z,98839.22
2019-01-11T07:47:07.683Z,98842.32
2019-01-11T07:49:39.459Z,98846.47
2019-01-11T07:52:11.936Z,98855.16
2019-01-11T07:54:43.784Z,98849.63
2019-01-11T07:57:16.285Z,98842.97
2019-01-11T07:59:48.098Z,98847.06
2019-01-11T08:02:19.857Z,98858.66
2019-01-11T08:04:51.975Z,98855.63
2019-01-11T08:07:23.661Z,98857.97
2019-01-11T08:09:55.851Z,98862.51
2019-01-11T08:12:27.632Z,98868.28
2019-01-11T08:15:00.837Z,98866.53
2019-01-11T08:17:34.221Z,98864.63
2019-01-11T08:20:06.296Z,98863.34
2019-01-11T08:22:42.464Z,98863.46
2019-01-11T08:25:14.909Z,98864.77
2019-01-11T08:27:46.893Z,98866.58
2019-01-11T08:30:18.958Z,98862.67
2019-01-11T08:32:51.324Z,98864.89
2019-01-11T08:35:23.157Z,98874.52
2019-01-11T08:37:54.995Z,98874.02
2019-01-11T08:40:27.460Z,98882.78
2019-01-11T08:42:59.363Z,98878.28
2019-01-11T08:45:31.092Z,98880.58
2019-01-11T08:48:02.994Z,98885.78
2019-01-11T08:50:34.816Z,98878.59
2019-01-11T08:53:06.743Z,98884.25
2019-01-11T08:55:39.219Z,98886.44
2019-01-11T08:58:11.137Z,98884.04
2019-01-11T09:00:42.957Z,98891.90
2019-01-11T09:03:14.797Z,98890.78
2019-01-11T09:05:46.609Z,98889.59
2019-01-11T09:08:18.872Z,98902.91
2019-01-11T09:10:51.200Z,98907.92
2019-01-11T09:13:23.990Z,98907.09
2019-01-11T09:15:55.910Z,98906.62
2019-01-11T09:18:38.210Z,98915.41
2019-01-11T09:21:11.447Z,98917.44
2019-01-11T09:23:43.300Z,98910.21
2019-01-11T09:26:15.556Z,98910.47
2019-01-11T09:28:47.469Z,98916.55
2019-01-11T09:31:20.344Z,98913.02
2019-01-11T09:33:52.946Z,98906.36
2019-01-11T09:36:25.240Z,98909.39
2019-01-11T09:38:58.179Z,98907.75
2019-01-11T09:41:30.260Z,98902.55
2019-01-11T09:44:02.055Z,98907.83
2019-01-11T09:46:34.089Z,98916.17
2019-01-11T09:49:06.006Z,98910.45
2019-01-11T09:51:38.075Z,98917.58
2019-01-11T09:54:10.209Z,98920.58
2019-01-11T09:56:42.486Z,98918.87
2019-01-11T09:59:14.490Z,98915.02
2019-01-11T10:01:47.931Z,98915.06
2019-01-11T10:04:24.912Z,98905.04
2019-01-11T10:07:08.133Z,98906.77
2019-01-11T10:09:40.273Z,98900.41
2019-01-11T10:12:12.875Z,98903.59
2019-01-11T10:14:44.969Z,98902.17
2019-01-11T10:17:16.851Z,98905.30
2019-01-11T10:19:49.148Z,98897.98
2019-01-11T10:22:21.251Z,98899.55
2019-01-11T10:24:54.149Z,98896.53
2019-01-11T10:27:27.029Z,98882.77
2019-01-11T10:29:58.638Z,98882.40
2019-01-11T10:32:30.507Z,98889.28
2019-01-11T10:35:04.514Z,98887.88
2019-01-11T10:37:36.476Z,98885.41
2019-01-11T10:40:10.359Z,98894.36
2019-01-11T10:42:42.715Z,98890.78
2019-01-11T10:45:24.971Z,98888.91
2019-01-11T10:47:59.528Z,98892.67
2019-01-11T10:50:31.418Z,98892.34
2019-01-11T10:53:03.375Z,98882.36
2019-01-11T10:55:35.001Z,98881.70
2019-01-11T10:58:07.550Z,98888.84
2019-01-11T11:00:41.219Z,98872.36
2019-01-11T11:03:13.902Z,98885.20
2019-01-11T11:05:45.724Z,98870.03
2019-01-11T11:08:17.730Z,98874.80
2019-01-11T11:10:50.793Z,98869.20
2019-01-11T11:13:22.360Z,98873.68
2019-01-11T11:15:57.012Z,98872.72
2019-01-11T11:18:28.870Z,98871.91
2019-01-11T11:21:00.570Z,98875.71
2019-01-11T11:23:32.302Z,98871.28
2019-01-11T11:26:04.993Z,98863.94
2019-01-11T11:28:36.650Z,98860.23
2019-01-11T11:31:09.433Z,98859.78
2019-01-11T11:33:41.179Z,98868.40
2019-01-11T11:36:13.511Z,98865.69
2019-01-11T11:38:45.428Z,98870.71
2019-01-11T11:41:18.565Z,98874.13
2019-01-11T11:43:50.746Z,98854.91
2019-01-11T11:46:23.308Z,98862.02
2019-01-11T11:48:56.286Z,98858.97
2019-01-11T11:51:28.645Z,98860.56
2019-01-11T11:54:00.613Z,98861.83
2019-01-11T11:56:33.772Z,98854.83
2019-01-11T11:59:06.134Z,98852.45
2019-01-11T12:01:38.492Z,98846.03
2019-01-11T12:04:10.114Z,98848.07
2019-01-11T12:06:42.006Z,98854.95
2019-01-11T12:09:13.826Z,98850.16
2019-01-11T12:11:45.409Z,98856.11
2019-01-11T12:14:17.275Z,98850.91
2019-01-11T12:16:48.944Z,98843.59
2019-01-11T12:19:20.557Z,98853.17
2019-01-11T12:21:52.393Z,98846.00
2019-01-11T12:24:23.998Z,98844.91
2019-01-11T12:26:55.730Z,98840.50
2019-01-11T12:29:27.432Z,98840.74
2019-01-11T12:31:59.107Z,98836.95
2019-01-11T12:34:31.208Z,98834.73
2019-01-11T12:37:03.054Z,98841.46
2019-01-11T12:39:34.713Z,98842.94
2019-01-11T12:42:07.261Z,98827.20
2019-01-11T12:44:39.021Z,98824.83
2019-01-11T12:47:11.335Z,98826.30
2019-01-11T12:49:48.473Z,98828.33
2019-01-11T12:52:20.836Z,98830.28
2019-01-11T12:54:53.087Z,98828.50
2019-01-11T12:57:25.408Z,98834.50
2019-01-11T12:59:58.334Z,98828.79
2019-01-11T13:02:31.418Z,98839.81
2019-01-11T13:05:04.496Z,98833.97
2019-01-11T13:07:40.133Z,98835.06
2019-01-11T13:10:15.657Z,98830.49
2019-01-11T13:12:47.507Z,98841.41
2019-01-11T13:15:25.189Z,98839.83
2019-01-11T13:17:59.148Z,98825.57
2019-01-11T13:20:30.906Z,98841.49
2019-01-11T13:23:03.615Z,98830.10
2019-01-11T13:25:35.403Z,98842.70
2019-01-11T13:28:07.493Z,98832.59
2019-01-11T13:30:39.052Z,98831.49
2019-01-11T13:33:11.025Z,98845.66
2019-01-11T13:35:43.482Z,98837.02
2019-01-11T13:38:15.169Z,98851.07
2019-01-11T13:40:47.025Z,98847.39
2019-01-11T13:43:19.185Z,98850.63
2019-01-11T13:45:51.189Z,98851.34
2019-01-11T13:48:23.087Z,98852.75
2019-01-11T13:50:56.312Z,98851.56
2019-01-11T13:53:29.912Z,98855.61
2019-01-11T13:56:03.432Z,98857.75
2019-01-11T13:58:35.300Z,98860.41
2019-01-11T14:01:08.747Z,98863.34
2019-01-11T14:03:40.511Z,98870.88
2019-01-11T14:06:12.691Z,98872.05
2019-01-11T14:08:44.630Z,98878.73
2019-01-11T14:11:17.518Z,98867.48
2019-01-11T14:13:49.948Z,98878.21
2019-01-11T14:16:22.670Z,98878.96
2019-01-11T14:18:54.571Z,98885.56
2019-01-11T14:21:27.016Z,98881.98
2019-01-11T14:23:59.427Z,98887.25
2019-01-11T14:26:31.284Z,98900.91
2019-01-11T14:29:03.075Z,98903.50
2019-01-11T14:31:37.293Z,98901.48
2019-01-11T14:34:09.456Z,98905.36
2019-01-11T14:36:42.795Z,98905.56
2019-01-11T14:39:14.777Z,98915.56
2019-01-11T14:41:47.707Z,98912.13
2019-01-11T14:44:19.686Z,98916.95
2019-01-11T14:46:51.955Z,98923.12
2019-01-11T14:49:25.201Z,98922.38
2019-01-11T14:51:56.893Z,98918.68
2019-01-11T14:54:28.708Z,98926.39
2019-01-11T14:57:02.863Z,98929.83
2019-01-11T14:59:35.038Z,98932.73
2019-01-11T15:02:07.140Z,98927.12
2019-01-11T15:04:39.842Z,98933.14
2019-01-11T15:07:11.760Z,98938.25
2019-01-11T15:09:44.445Z,98939.16
2019-01-11T15:12:16.473Z,98934.41
2019-01-11T15:14:51.737Z,98937.54
2019-01-11T15:17:23.358Z,98935.75
2019-01-11T15:19:55.567Z,98935.18
2019-01-11T15:22:27.478Z,98945.11
2019-01-11T15:24:59.260Z,98951.27
2019-01-11T15:27:32.403Z,98952.80
2019-01-11T15:30:05.640Z,98944.13
2019-01-11T15:32:38.819Z,98944.51
2019-01-11T15:35:10.764Z,98947.86
2019-01-11T15:37:44.199Z,98953.25
2019-01-11T15:40:26.528Z,98954.32
2019-01-11T15:42:58.794Z,98956.22
2019-01-11T15:45:31.108Z,98953.91
2019-01-11T15:48:03.542Z,98952.59
2019-01-11T15:50:55.792Z,98954.27
2019-01-11T15:53:34.583Z,98959.02
2019-01-11T15:56:12.382Z,98960.73
2019-01-11T15:58:46.902Z,98955.14
2019-01-11T16:01:19.000Z,98965.30
2019-01-11T16:03:51.717Z,98962.06
2019-01-11T16:06:38.482Z,98964.93
2019-01-11T16:10:06.058Z,98965.83
2019-01-11T16:12:51.255Z,98965.42
2019-01-11T16:15:59.343Z,98962.66
2019-01-11T16:18:35.965Z,98963.20
2019-01-11T16:21:08.924Z,98962.13
2019-01-11T16:23:41.537Z,98965.84
2019-01-11T16:26:15.352Z,98965.51
2019-01-11T16:28:47.509Z,98974.18
2019-01-11T16:31:21.858Z,98976.02
2019-01-11T16:33:53.932Z,98976.78
2019-01-11T16:36:27.415Z,98983.55
2019-01-11T16:38:59.319Z,98986.93
2019-01-11T16:41:33.657Z,98990.23
2019-01-11T16:44:06.325Z,98999.34
2019-01-11T16:46:39.505Z,98993.01
2019-01-11T16:49:12.278Z,98991.28
2019-01-11T16:51:45.425Z,98988.71
2019-01-11T16:54:18.065Z,98995.37
2019-01-11T16:56:51.279Z,98993.64
2019-01-11T16:59:24.124Z,98995.30
2019-01-11T17:01:57.120Z,98997.31
2019-01-11T17:04:30.119Z,98993.06
2019-01-11T17:07:04.905Z,98996.81
2019-01-11T17:09:38.099Z,98998.66
2019-01-11T17:12:11.456Z,98996.55
2019-01-11T17:14:45.554Z,99001.63
2019-01-11T17:17:17.476Z,99003.26
2019-01-11T17:19:49.716Z,99009.91
2019-01-11T17:22:25.000Z,99013.77
2019-01-11T17:24:57.125Z,99012.98
2019-01-11T17:27:29.229Z,99012.83
2019-01-11T17:30:01.042Z,99021.44
2019-01-11T17:32:32.952Z,99023.91
2019-01-11T17:35:05.237Z,99021.66
2019-01-11T17:37:38.855Z,99016.84
2019-01-11T17:40:12.615Z,99022.70
2019-01-11T17:42:44.586Z,99028.92
2019-01-11T17:45:17.861Z,99025.80
2019-01-11T17:47:50.034Z,99031.62
2019-01-11T17:50:22.147Z,99034.63
2019-01-11T17:52:59.823Z,99034.67
2019-01-11T17:55:28.639Z,99037.87
2019-01-11T17:58:00.636Z,99044.88
2019-01-11T18:00:33.955Z,99044.31
2019-01-11T18:03:07.478Z,99049.70
2019-01-11T18:05:39.589Z,99048.59
2019-01-11T18:08:11.778Z,99054.33
2019-01-11T18:10:47.007Z,99047.68
2019-01-11T18:13:19.221Z,99055.82
2019-01-11T18:15:51.510Z,99064.11
2019-01-11T18:18:24.047Z,99068.48
2019-01-11T18:20:56.503Z,99057.84
2019-01-11T18:23:28.967Z,99050.61
2019-01-11T18:26:02.836Z,99062.86
2019-01-11T18:28:37.944Z,99064.86
2019-01-11T18:31:10.281Z,99055.93
2019-01-11T18:33:45.582Z,99061.48
2019-01-11T18:36:18.384Z,99064.88
2019-01-11T18:38:52.909Z,99062.20
2019-01-11T18:41:27.011Z,99066.81
2019-01-11T18:43:59.351Z,99069.84
2019-01-11T18:46:31.680Z,99072.47
2019-01-11T18:49:04.377Z,99073.52
2019-01-11T18:51:37.048Z,99080.03
2019-01-11T18:54:11.967Z,99082.22
2019-01-11T18:56:46.181Z,99085.87
2019-01-11T18:59:18.519Z,99083.03
2019-01-11T19:01:50.744Z,99075.94
2019-01-11T19:04:22.727Z,99080.78
2019-01-11T19:06:55.917Z,99077.06
2019-01-11T19:09:28.236Z,99087.45
2019-01-11T19:12:00.728Z,99085.02
2019-01-11T19:14:33.920Z,99095.92
2019-01-11T19:17:06.093Z,99093.95
2019-01-11T19:19:38.368Z,99091.12
2019-01-11T19:22:10.591Z,99095.91
2019-01-11T19:24:45.068Z,99097.20
2019-01-11T19:27:19.434Z,99095.36
2019-01-11T19:29:51.949Z,99089.08
2019-01-11T19:32:24.126Z,99101.08
2019-01-11T19:34:56.983Z,99104.92
2019-01-11T19:37:29.364Z,99106.75
2019-01-11T19:40:02.246Z,99100.88
2019-01-11T19:42:34.870Z,99094.59
2019-01-11T19:45:09.845Z,99103.29
2019-01-11T19:47:42.029Z,99095.72
2019-01-11T19:50:17.219Z,99098.47
2019-01-11T19:52:50.276Z,99094.84
2019-01-11T19:55:23.103Z,99098.86
2019-01-11T19:57:56.516Z,99095.97
2019-01-11T20:00:31.189Z,99099.95
2019-01-11T20:03:03.532Z,99103.49
2019-01-11T20:05:36.328Z,99113.47
2019-01-11T20:08:09.612Z,99109.69
2019-01-11T20:10:41.536Z,99109.66
2019-01-11T20:13:13.881Z,99114.68
2019-01-11T20:15:46.585Z,99117.70
2019-01-11T20:18:18.783Z,99123.80
2019-01-11T20:20:51.464Z,99124.65
2019-01-11T20:23:24.253Z,99133.61
2019-01-11T20:25:56.778Z,99138.75
2019-01-11T20:28:30.804Z,99126.41
2019-01-11T20:31:03.168Z,99129.41
2019-01-11T20:33:35.229Z,99128.72
2019-01-11T20:36:07.432Z,99125.77
2019-01-11T20:38:39.595Z,99121.08
2019-01-11T20:41:11.839Z,99124.17
2019-01-11T20:43:44.030Z,99126.34
2019-01-11T20:46:16.100Z,99127.19
2019-01-11T20:48:48.127Z,99124.69
2019-01-11T20:51:21.734Z,99126.42
2019-01-11T20:53:54.149Z,99132.30
2019-01-11T20:56:26.431Z,99124.63
2019-01-11T20:58:59.575Z,99127.50
2019-01-11T21:01:31.825Z,99127.88
2019-01-11T21:04:03.927Z,99128.15
2019-01-11T21:06:36.144Z,99131.93
2019-01-11T21:09:11.043Z,99132.30
2019-01-11T21:11:47.217Z,99133.97
2019-01-11T21:14:20.441Z,99133.12
2019-01-11T21:16:53.014Z,99134.86
2019-01-11T21:19:26.280Z,99136.25
2019-01-11T21:21:59.494Z,99137.50
2019-01-11T21:24:31.634Z,99127.64
2019-01-11T21:27:04.643Z,99129.67
2019-01-11T21:29:37.058Z,99126.07
2019-01-11T21:32:09.367Z,99127.32
2019-01-11T21:34:41.746Z,99133.33
2019-01-11T21:37:13.682Z,99134.15
2019-01-11T21:39:46.150Z,99133.14
2019-01-11T21:42:19.136Z,99135.53
2019-01-11T21:44:51.933Z,99130.44
2019-01-11T21:47:24.046Z,99139.37
2019-01-11T21:49:56.513Z,99132.05
2019-01-11T21:52:28.308Z,99131.52
2019-01-11T21:55:01.389Z,99137.81
2019-01-11T21:57:33.598Z,99136.08
2019-01-11T22:00:07.150Z,99136.57
2019-01-11T22:02:39.131Z,99138.73
2019-01-11T22:05:11.170Z,99137.81
2019-01-11T22:07:45.420Z,99139.84
2019-01-11T22:10:17.530Z,99141.98
2019-01-11T22:12:49.854Z,99137.00
2019-01-11T22:15:22.503Z,99140.19
2019-01-11T22:17:55.470Z,99132.67
2019-01-11T22:20:27.710Z,99133.66
2019-01-11T22:22:59.721Z,99133.45
2019-01-11T22:25:31.423Z,99129.86
2019-01-11T22:28:03.198Z,99134.72
2019-01-11T22:30:35.387Z,99133.61
2019-01-11T22:33:07.161Z,99121.39
2019-01-11T22:35:38.965Z,99116.35
2019-01-11T22:38:10.595Z,99116.41
2019-01-11T22:40:42.118Z,99114.73
2019-01-11T22:43:14.169Z,99116.44
2019-01-11T22:45:46.105Z,99122.45
2019-01-11T22:48:18.383Z,99110.17
2019-01-11T22:50:50.499Z,99107.30
2019-01-11T22:53:22.260Z,99106.53
2019-01-11T22:55:54.160Z,99108.72
2019-01-11T22:58:26.104Z,99107.52
2019-01-11T23:01:49.598Z,99112.67
2019-01-11T23:04:21.516Z,99115.72
2019-01-11T23:07:38.056Z,99106.95
2019-01-11T23:10:53.308Z,99107.91
2019-01-11T23:13:25.343Z,99108.34
2019-01-11T23:16:25.692Z,99106.66
2019-01-11T23:18:59.515Z,99100.69
2019-01-11T23:21:31.207Z,99102.84
2019-01-11T23:24:03.156Z,99100.33
2019-01-11T23:26:43.647Z,99100.28
2019-01-11T23:29:15.706Z,99098.56
2019-01-11T23:31:48.102Z,99084.09
2019-01-11T23:34:19.908Z,99084.97
2019-01-11T23:36:52.111Z,99082.86
2019-01-11T23:39:23.842Z,99084.05
2019-01-11T23:41:56.235Z,99088.78
2019-01-11T23:44:27.974Z,99091.37
2019-01-11T23:47:00.504Z,99089.28
2019-01-11T23:49:32.223Z,99085.95
2019-01-11T23:52:05.041Z,99087.36
2019-01-11T23:54:37.067Z,99079.75
2019-01-11T23:57:09.451Z,99081.10
2019-01-11T23:59:41.199Z,99082.04
